Terminal Aerodrome Forecast
Issued by NWS Knoxville/Tri Cities, TN

Home | Current Version | Previous Version | Text Only | Print | Product List | Glossary On
Versions: 1 2 3 4 5 6 7 8 9 10 11 12 13 14 15 16 17 18 19 20 21 22 23 24 25 26
000
FTUS44 KMRX 012320
TAFCHA
TAF
KCHA 012320Z 0200/0224 20002KT 6SM -DZ BR OVC015
     FM020300 20002KT 4SM -DZ BR OVC010
     FM021200 36007KT 6SM BR OVC008
     FM021600 01005KT P6SM OVC030
     FM021800 01005KT P6SM OVC050=

USA.gov is the U.S. government's official web portal to all federal, state and local government web resources and services.